עמוד ראשי
METAR-TAF:

METAR-TAF

שדות תעופה :

Kinloss, סקוטלנד

קו רוחב: 57-39N, קו אורך: 003-34W, גובה: 7מטר

תצפית מזג אוויר נוכחית

הדו"ח נערך לפני 44דקות, בשעה 22:20 UTC
רוח 4קשר מכיוון מזרח
טמפרטורת 10 צלסיוס
לחות 93%
לחץ 1018 hPa
ראות 10 קילומטר או יותר

METAR: EGQK 182220Z AUTO 08004KT 9999 BKN090/// 10/09 Q1018

זמן: 00:04 (23:04 UTC)


TAF: חסר

תצפיות ותחזיות מזג אוויר לגבי יותר מ- 4,000 שדות תעופה ברחבי העולם. דוחות METAR ו- TAF.

התחנות הזמינות מסומנות בנקודות צהובות ואדומות על גבי המפה.

העבר את העכבר לנקודה הצבעונית על מנת לראות את שם התחנה.

לאחר מכן, לחץ כדי לראות את תוכן ואת תחזיות מזג האוויר.

כדי לשנות את המפה: לחץ על הכפתורים הירוקים עם הפלוס השחור כדי להתקרב; על הכפתור הירוק עם המקף כדי להתרחק; או בחיצים הירוקים למפות סמוכות.


METAR-TAF: